Time;durP1;ratioP1;P1;durP2;ratioP2;P2;SDS_P1;SDS_P2;PMS_P1;PMS_P2;Temp;Humidity;BMP_temperature;BMP_pressure;BME280_temperature;BME280_humidity;BME280_pressure;Samples;Min_cycle;Max_cycle;Signal;HPM_P1;HPM_P2
2021/03/11 00:02:09;;;;;;;67.63;28.37;;;;;;;-0.03;51.39;100682.27;1776271;79;21430;-69
2021/03/11 00:04:35;;;;;;;69.10;29.37;;;;;;;-0.02;51.47;100673.56;1780077;79;21018;-68
2021/03/11 00:07:00;;;;;;;68.83;29.67;;;;;;;-0.01;51.51;100671.80;1781773;79;21046;-69
2021/03/11 00:09:26;;;;;;;69.70;29.27;;;;;;;0.00;51.37;100677.39;1782264;79;21128;-69
2021/03/11 00:11:52;;;;;;;66.47;28.67;;;;;;;-0.02;51.57;100676.16;1779332;79;21610;-69
2021/03/11 00:14:18;;;;;;;64.50;28.33;;;;;;;-0.03;51.67;100671.88;1783918;79;21728;-69
2021/03/11 00:16:43;;;;;;;66.47;28.53;;;;;;;-0.03;51.55;100667.16;1786032;79;20967;-68
2021/03/11 00:19:09;;;;;;;66.80;28.33;;;;;;;-0.05;51.72;100665.06;1778979;79;20908;-70
2021/03/11 00:21:35;;;;;;;72.67;29.93;;;;;;;-0.07;51.72;100663.02;1783487;79;21019;-68
2021/03/11 00:24:00;;;;;;;71.23;29.27;;;;;;;-0.13;52.15;100658.95;1779332;79;20995;-68
2021/03/11 00:26:26;;;;;;;68.57;30.00;;;;;;;-0.11;52.17;100645.46;1783532;79;21708;-68
2021/03/11 00:28:52;;;;;;;65.60;29.17;;;;;;;-0.15;52.52;100638.73;1781520;79;21026;-69
2021/03/11 00:31:18;;;;;;;71.17;31.53;;;;;;;-0.17;52.35;100630.19;1784334;79;20932;-69
2021/03/11 00:33:43;;;;;;;74.13;31.90;;;;;;;-0.18;52.44;100618.12;1779084;80;20955;-69
2021/03/11 00:36:10;;;;;;;81.27;33.90;;;;;;;-0.23;52.88;100622.70;1779502;80;21036;-69
2021/03/11 00:38:35;;;;;;;78.47;32.80;;;;;;;-0.22;52.50;100617.88;1778239;79;21230;-69
2021/03/11 00:41:01;;;;;;;84.37;33.10;;;;;;;-0.26;52.60;100612.47;1780587;79;20976;-69
2021/03/11 00:43:27;;;;;;;86.33;33.83;;;;;;;-0.27;52.76;100608.19;1779810;79;21062;-69
2021/03/11 00:45:52;;;;;;;83.90;34.53;;;;;;;-0.40;53.65;100607.48;1784483;79;20955;-69
2021/03/11 00:48:18;;;;;;;87.10;35.97;;;;;;;-0.46;54.02;100611.67;1780879;79;20940;-69
2021/03/11 00:50:44;;;;;;;87.17;35.93;;;;;;;-0.51;53.94;100618.84;1785308;79;21641;-68
2021/03/11 00:53:10;;;;;;;89.43;35.97;;;;;;;-0.52;53.88;100617.16;1784671;79;20963;-69
2021/03/11 00:55:35;;;;;;;90.30;35.20;;;;;;;-0.44;53.58;100620.21;1782521;79;21038;-68
2021/03/11 00:58:01;;;;;;;79.40;33.00;;;;;;;-0.43;53.85;100612.82;1776798;79;21014;-70
2021/03/11 01:00:27;;;;;;;87.90;34.80;;;;;;;-0.40;53.28;100598.41;1784029;78;20959;-70
2021/03/11 01:02:53;;;;;;;85.30;33.70;;;;;;;-0.43;53.33;100586.88;1782557;79;21090;-68
2021/03/11 01:05:25;;;;;;;86.10;33.27;;;;;;;-0.40;53.48;100598.41;1787276;79;20955;-69
2021/03/11 01:07:51;;;;;;;83.87;31.33;;;;;;;-0.37;53.14;100600.84;1786070;78;21185;-70
2021/03/11 01:10:17;;;;;;;73.40;32.03;;;;;;;-0.35;53.05;100605.13;1781674;79;20951;-68
2021/03/11 01:12:42;;;;;;;78.77;31.83;;;;;;;-0.35;53.02;100596.05;1780421;78;20956;-68
2021/03/11 01:15:09;;;;;;;72.73;31.47;;;;;;;-0.34;52.89;100591.23;1785572;79;21475;-68
2021/03/11 01:17:36;;;;;;;71.75;31.15;;;;;;;-0.42;53.31;100598.95;1782585;79;21388;-68
2021/03/11 01:20:16;;;;;;;76.47;31.70;;;;;;;-0.42;53.20;100597.65;1784065;79;21137;-67
2021/03/11 01:22:42;;;;;;;74.27;30.95;;;;;;;-0.42;53.08;100592.45;1779060;79;21701;-68
2021/03/11 01:25:09;;;;;;;75.07;30.40;;;;;;;-0.43;53.09;100592.06;1778434;79;21032;-68
2021/03/11 01:27:35;;;;;;;74.37;31.80;;;;;;;-0.45;53.17;100592.61;1781005;79;21611;-68
2021/03/11 01:30:01;;;;;;;70.70;30.07;;;;;;;-0.45;53.23;100593.91;1779434;79;21672;-68
2021/03/11 01:32:27;;;;;;;76.20;31.40;;;;;;;-0.47;53.02;100593.12;1784482;79;21200;-68
2021/03/11 01:34:53;;;;;;;79.27;31.40;;;;;;;-0.52;53.07;100595.10;1788272;79;20927;-69
2021/03/11 01:37:19;;;;;;;78.33;31.47;;;;;;;-0.52;53.20;100591.22;1785601;79;21232;-67
2021/03/11 01:39:44;;;;;;;72.20;30.70;;;;;;;-0.53;53.32;100579.15;1779724;79;21571;-68
2021/03/11 01:42:10;;;;;;;77.00;31.77;;;;;;;-0.53;53.24;100581.73;1785560;79;20948;-68
2021/03/11 01:44:36;;;;;;;79.77;32.40;;;;;;;-0.52;53.22;100576.12;1776792;79;21034;-68
2021/03/11 01:47:02;;;;;;;70.73;31.30;;;;;;;-0.55;53.21;100568.02;1777045;79;21010;-68
2021/03/11 01:49:27;;;;;;;73.10;29.87;;;;;;;-0.57;53.37;100559.48;1784499;79;20948;-69
2021/03/11 01:51:53;;;;;;;72.63;30.37;;;;;;;-0.56;53.27;100561.14;1783732;79;21363;-68
2021/03/11 01:54:19;;;;;;;76.17;31.07;;;;;;;-0.56;53.31;100555.95;1783608;79;21141;-68
2021/03/11 01:56:45;;;;;;;73.70;31.23;;;;;;;-0.57;53.29;100554.30;1786584;79;21063;-68
2021/03/11 01:59:10;;;;;;;75.20;30.67;;;;;;;-0.59;53.39;100550.91;1783106;79;21010;-69
2021/03/11 02:01:36;;;;;;;73.37;30.10;;;;;;;-0.59;53.31;100548.31;1779660;80;20972;-68
2021/03/11 02:04:02;;;;;;;76.10;31.60;;;;;;;-0.61;53.32;100547.09;1786253;79;21186;-69
2021/03/11 02:06:28;;;;;;;70.72;30.10;;;;;;;-0.66;53.66;100550.38;1782673;79;21793;-69
2021/03/11 02:08:54;;;;;;;77.73;31.40;;;;;;;-0.77;53.97;100553.48;1779983;79;20896;-68
2021/03/11 02:11:26;;;;;;;83.80;32.70;;;;;;;-0.81;54.48;100553.27;1783494;79;21213;-68
2021/03/11 02:14:37;;;;;;;78.47;32.13;;;;;;;-0.91;54.51;100545.53;1782379;78;21133;-68
2021/03/11 02:17:02;;;;;;;76.35;31.10;;;;;;;-0.97;54.68;100538.05;1778490;79;21197;-69
2021/03/11 02:19:58;;;;;;;75.30;30.87;;;;;;;-0.94;54.53;100542.63;1785819;80;20916;-68
2021/03/11 02:22:58;;;;;;;67.85;29.48;;;;;;;-0.90;54.41;100534.27;1783140;79;21196;-68
2021/03/11 02:25:50;;;;;;;74.53;29.27;;;;;;;-0.88;54.24;100533.72;1780629;79;21237;-68
2021/03/11 02:28:27;;;;;;;73.05;30.37;;;;;;;-0.84;54.05;100531.38;1781966;79;21620;-67
2021/03/11 02:30:55;;;;;;;64.65;28.60;;;;;;;-0.83;54.03;100530.45;1776323;79;21205;-69
2021/03/11 02:33:21;;;;;;;;;;;;;;;-0.89;54.37;100520.37;1780532;79;21240;-69
2021/03/11 02:35:47;;;;;;;63.15;27.22;;;;;;;-0.91;54.44;100517.02;1780686;79;20307;-69
2021/03/11 02:38:13;;;;;;;71.33;29.60;;;;;;;-0.88;54.20;100519.47;1779649;79;20939;-68
2021/03/11 02:40:38;;;;;;;65.87;29.20;;;;;;;-0.89;54.12;100514.36;1783044;79;20940;-68
2021/03/11 02:43:10;;;;;;;74.23;30.97;;;;;;;-0.89;54.15;100510.00;1783510;79;21526;-68
2021/03/11 02:45:36;;;;;;;76.35;31.70;;;;;;;-0.88;54.12;100510.39;1780013;79;21196;-68
2021/03/11 02:48:04;;;;;;;74.63;30.83;;;;;;;-0.89;54.30;100502.22;1778720;79;21009;-68
2021/03/11 02:50:30;;;;;;;79.53;31.87;;;;;;;-0.92;54.31;100495.89;1781366;79;21110;-69
2021/03/11 02:52:56;;;;;;;70.55;31.62;;;;;;;-0.90;54.25;100497.97;1781458;79;21488;-68
2021/03/11 02:55:22;;;;;;;68.30;29.33;;;;;;;-0.91;54.53;100493.69;1784301;79;21021;-68
2021/03/11 02:57:49;;;;;;;76.20;32.60;;;;;;;-0.99;54.59;100494.52;1780971;79;21157;-68
2021/03/11 03:00:16;;;;;;;69.60;29.60;;;;;;;-1.00;54.46;100494.96;1782834;79;21466;-68
2021/03/11 03:02:43;;;;;;;66.30;29.30;;;;;;;-0.97;54.42;100498.70;1781167;79;21555;-67
2021/03/11 03:05:12;;;;;;;72.92;30.52;;;;;;;-0.97;54.50;100491.39;1778694;79;21197;-67
2021/03/11 03:07:45;;;;;;;74.82;31.23;;;;;;;-1.00;54.56;100487.66;1784599;79;21566;-68
2021/03/11 03:10:09;;;;;;;71.70;30.57;;;;;;;-1.02;54.77;100479.12;1777400;79;21239;-68
2021/03/11 03:12:37;;;;;;;69.58;29.75;;;;;;;-1.04;54.87;100484.81;1783757;79;21237;-67
2021/03/11 03:15:04;;;;;;;66.15;27.90;;;;;;;-1.04;54.86;100488.70;1783333;80;28012;-69
2021/03/11 03:17:30;;;;;;;69.53;28.00;;;;;;;-1.05;54.79;100492.23;1781109;79;21208;-68
2021/03/11 03:19:55;;;;;;;66.90;29.23;;;;;;;-1.06;54.77;100487.94;1783317;79;21390;-67
2021/03/11 03:22:21;;;;;;;73.90;30.43;;;;;;;-1.05;54.82;100485.74;1786887;79;20920;-68
2021/03/11 03:24:47;;;;;;;65.37;27.53;;;;;;;-1.05;54.72;100488.34;1786765;80;21251;-68
2021/03/11 03:27:14;;;;;;;69.57;30.27;;;;;;;-1.14;55.04;100483.95;1778932;79;21026;-68
2021/03/11 03:29:41;;;;;;;62.00;26.93;;;;;;;-1.15;55.21;100478.41;1783486;79;21166;-68
2021/03/11 03:32:07;;;;;;;70.37;28.75;;;;;;;-1.21;55.52;100476.11;1760804;79;22439;-69
2021/03/11 03:34:33;;;;;;;66.93;27.77;;;;;;;-1.20;55.53;100484.71;1784400;79;21709;-69
2021/03/11 03:36:59;;;;;;;70.53;29.83;;;;;;;-1.38;56.18;100481.22;1787995;79;21685;-69
2021/03/11 03:39:26;;;;;;;71.92;30.45;;;;;;;-1.49;56.60;100479.98;1784347;79;21244;-69
2021/03/11 03:41:51;;;;;;;70.50;29.37;;;;;;;-1.50;56.78;100485.23;1786987;79;21241;-69
2021/03/11 03:44:19;;;;;;;72.60;30.27;;;;;;;-1.43;56.49;100487.08;1787322;78;21121;-69
2021/03/11 03:46:45;;;;;;;68.30;29.42;;;;;;;-1.40;56.64;100488.23;1780655;79;21231;-69
2021/03/11 03:49:12;;;;;;;65.78;27.75;;;;;;;-1.33;56.27;100488.34;1784359;79;21122;-69
2021/03/11 03:51:39;;;;;;;66.37;28.80;;;;;;;-1.31;56.01;100487.80;1781555;80;22319;-69
2021/03/11 03:54:08;;;;;;;65.67;28.73;;;;;;;-1.29;55.92;100483.38;1784532;80;21195;-68
2021/03/11 03:56:45;;;;;;;67.32;29.25;;;;;;;-1.26;55.80;100475.47;1783929;79;21323;-69
2021/03/11 03:59:14;;;;;;;61.85;27.52;;;;;;;-1.22;55.62;100482.19;1785331;79;21611;-68
2021/03/11 04:01:41;;;;;;;61.53;27.48;;;;;;;-1.21;55.68;100476.11;1787237;79;21595;-69
2021/03/11 04:04:08;;;;;;;61.80;28.83;;;;;;;-1.21;55.75;100480.00;1785122;79;21204;-68
2021/03/11 04:06:34;;;;;;;71.37;29.63;;;;;;;-1.21;55.76;100473.52;1784466;79;27005;-69
2021/03/11 04:09:03;;;;;;;67.95;29.10;;;;;;;-1.20;55.70;100480.36;1784307;80;21784;-68
2021/03/11 04:11:29;;;;;;;70.97;30.52;;;;;;;-1.23;55.96;100477.91;1781220;80;21181;-68
2021/03/11 04:13:54;;;;;;;74.03;32.63;;;;;;;-1.27;56.10;100477.69;1787364;79;20908;-68
2021/03/11 04:16:20;;;;;;;75.10;31.03;;;;;;;-1.25;56.18;100471.97;1782595;79;21012;-69
2021/03/11 04:18:46;;;;;;;71.37;29.33;;;;;;;-1.26;56.11;100472.88;1782559;79;20948;-68
2021/03/11 04:21:12;;;;;;;69.60;28.62;;;;;;;-1.24;56.09;100476.25;1781607;79;21560;-67
2021/03/11 04:23:38;;;;;;;71.80;30.00;;;;;;;-1.27;56.05;100476.40;1792048;78;22629;-68
2021/03/11 04:26:04;;;;;;;68.73;29.70;;;;;;;-1.29;56.48;100469.12;1785325;79;21018;-69
2021/03/11 04:28:31;;;;;;;68.47;28.95;;;;;;;-1.31;56.33;100461.90;1788816;79;21204;-69
2021/03/11 04:30:57;;;;;;;65.35;28.23;;;;;;;-1.31;56.42;100460.14;1790916;79;21515;-69
2021/03/11 04:33:23;;;;;;;65.17;29.07;;;;;;;-1.29;56.25;100458.77;1779729;79;21637;-69
2021/03/11 04:35:49;;;;;;;58.92;27.22;;;;;;;-1.34;56.51;100450.38;1775447;79;21248;-69
2021/03/11 04:38:14;;;;;;;70.67;30.30;;;;;;;-1.33;56.44;100447.72;1787557;79;20942;-69
2021/03/11 04:40:41;;;;;;;64.07;28.30;;;;;;;-1.36;56.55;100449.63;1782727;79;21113;-69
2021/03/11 04:43:06;;;;;;;64.05;27.67;;;;;;;-1.41;56.83;100450.28;1781513;79;21647;-69
2021/03/11 04:45:32;;;;;;;63.17;28.20;;;;;;;-1.39;56.57;100436.82;1795168;79;22231;-68
2021/03/11 04:47:58;;;;;;;66.70;27.73;;;;;;;-1.40;56.68;100433.83;1786690;79;20998;-68
2021/03/11 04:50:24;;;;;;;65.78;27.90;;;;;;;-1.41;56.65;100428.27;1787696;79;21249;-69
2021/03/11 04:52:50;;;;;;;60.73;28.10;;;;;;;-1.45;56.80;100431.00;1787661;79;20932;-68
2021/03/11 04:55:16;;;;;;;66.10;27.63;;;;;;;-1.42;56.76;100427.90;1786847;79;20966;-69
2021/03/11 04:57:41;;;;;;;62.07;26.57;;;;;;;-1.39;56.75;100432.94;1787319;78;21347;-69
2021/03/11 05:00:09;;;;;;;63.50;29.20;;;;;;;-1.40;56.97;100431.25;1792555;79;21640;-69
2021/03/11 05:02:34;;;;;;;57.13;24.60;;;;;;;-1.40;57.02;100432.54;1789111;79;21567;-70
2021/03/11 05:05:05;;;;;;;63.27;27.57;;;;;;;-1.52;57.65;100430.92;1772618;79;20939;-70
2021/03/11 05:07:30;;;;;;;65.62;28.42;;;;;;;-1.61;57.95;100431.35;1788822;79;21849;-68
2021/03/11 05:09:56;;;;;;;68.23;27.13;;;;;;;-1.66;58.34;100420.37;1787987;79;21519;-68
2021/03/11 05:12:23;;;;;;;71.00;27.27;;;;;;;-1.57;57.99;100419.95;1788916;79;20888;-68
2021/03/11 05:14:48;;;;;;;61.50;26.65;;;;;;;-1.48;58.00;100416.89;1785094;79;21188;-69
2021/03/11 05:17:15;;;;;;;57.33;26.37;;;;;;;-1.49;57.72;100415.23;1788175;78;21613;-68
2021/03/11 05:19:40;;;;;;;56.40;25.27;;;;;;;-1.45;57.54;100410.74;1789404;78;21247;-68
2021/03/11 05:22:06;;;;;;;64.67;27.43;;;;;;;-1.43;57.61;100404.20;1793383;79;21258;-68
2021/03/11 05:24:32;;;;;;;61.10;27.20;;;;;;;-1.39;57.52;100407.03;1782623;79;20978;-68
2021/03/11 05:26:57;;;;;;;62.13;26.07;;;;;;;-1.38;57.55;100404.37;1784180;79;21026;-69
2021/03/11 05:29:23;;;;;;;59.90;26.47;;;;;;;-1.32;57.43;100416.17;1776671;79;20960;-68
2021/03/11 05:31:49;;;;;;;58.13;25.67;;;;;;;-1.32;57.35;100410.98;1782584;80;21467;-68
2021/03/11 05:34:15;;;;;;;56.57;25.07;;;;;;;-1.27;57.23;100408.56;1776821;79;21930;-69
2021/03/11 05:36:40;;;;;;;60.07;25.17;;;;;;;-1.25;57.29;100402.02;1785917;79;21458;-68
2021/03/11 05:39:08;;;;;;;66.57;26.30;;;;;;;-1.28;57.40;100401.70;1781441;79;20964;-69
2021/03/11 05:41:38;;;;;;;57.35;25.95;;;;;;;-1.28;57.50;100401.70;1786208;79;21584;-69
2021/03/11 05:44:05;;;;;;;62.15;26.05;;;;;;;-1.27;57.65;100398.20;1786064;79;21536;-69
2021/03/11 05:46:31;;;;;;;62.58;27.58;;;;;;;-1.19;57.45;100399.13;1782231;79;21221;-69
2021/03/11 05:48:57;;;;;;;60.50;26.83;;;;;;;-1.17;57.46;100394.70;1773599;79;20924;-69
2021/03/11 05:51:22;;;;;;;62.33;26.90;;;;;;;-1.16;57.55;100384.73;1779012;79;21463;-69
2021/03/11 05:53:48;;;;;;;61.00;26.77;;;;;;;-1.12;57.50;100384.97;1775814;79;20975;-69
2021/03/11 05:56:14;;;;;;;64.00;27.27;;;;;;;-1.13;57.71;100393.65;1782081;79;20904;-69
2021/03/11 05:58:40;;;;;;;69.00;30.43;;;;;;;-1.12;57.88;100390.16;1778425;79;21366;-68
2021/03/11 06:01:05;;;;;;;63.80;28.43;;;;;;;-1.09;57.86;100379.63;1778976;79;21050;-69
2021/03/11 06:03:32;;;;;;;67.93;29.33;;;;;;;-1.04;57.90;100379.41;1772418;79;21331;-68
2021/03/11 06:06:00;;;;;;;66.97;28.83;;;;;;;-1.03;57.95;100361.63;1778223;80;21197;-68
2021/03/11 06:08:26;;;;;;;65.70;28.80;;;;;;;-0.99;58.15;100353.26;1774596;79;21189;-69
2021/03/11 06:10:56;;;;;;;71.30;29.00;;;;;;;-0.98;58.42;100347.14;1776511;79;21461;-68
2021/03/11 06:13:23;;;;;;;76.87;31.05;;;;;;;-0.98;58.82;100353.62;1780799;79;21205;-69
2021/03/11 06:15:55;;;;;;;64.70;28.35;;;;;;;-0.96;58.83;100353.11;1773805;79;21138;-69
2021/03/11 06:18:21;;;;;;;63.50;28.12;;;;;;;-0.89;58.82;100348.44;1780799;79;21190;-68
2021/03/11 06:20:46;;;;;;;67.87;31.07;;;;;;;-0.88;58.94;100345.77;1776565;79;21032;-68
2021/03/11 06:23:14;;;;;;;68.40;29.80;;;;;;;-0.83;59.03;100346.36;1767076;80;21318;-69
2021/03/11 06:25:39;;;;;;;66.72;30.00;;;;;;;-0.76;58.86;100344.31;1766900;80;21161;-67
2021/03/11 06:28:05;;;;;;;68.07;29.30;;;;;;;-0.71;59.05;100339.72;1731776;80;20938;-68
2021/03/11 06:30:39;;;;;;;66.77;29.63;;;;;;;-0.63;58.95;100335.44;1764684;80;20951;-68
2021/03/11 06:33:05;;;;;;;71.22;29.85;;;;;;;-0.54;59.16;100332.36;1768892;80;21207;-68
2021/03/11 06:35:36;;;;;;;67.12;28.38;;;;;;;-0.41;59.00;100324.29;1769249;80;21312;-68
2021/03/11 06:38:02;;;;;;;68.50;30.08;;;;;;;-0.35;58.69;100323.61;1767318;80;21189;-69
2021/03/11 06:40:29;;;;;;;72.50;30.27;;;;;;;-0.24;59.00;100319.97;1760856;79;21641;-69
2021/03/11 06:43:12;;;;;;;73.15;31.02;;;;;;;-0.19;59.02;100313.62;1758439;80;21232;-68
2021/03/11 06:45:38;;;;;;;72.00;30.15;;;;;;;-0.15;58.85;100311.69;1760307;80;21658;-68
2021/03/11 06:48:25;;;;;;;73.70;31.63;;;;;;;-0.11;58.78;100300.22;1763155;80;21789;-67
2021/03/11 06:50:56;;;;;;;77.30;32.17;;;;;;;-0.10;58.98;100297.98;1768012;80;21242;-68
2021/03/11 06:53:22;;;;;;;72.25;32.15;;;;;;;-0.09;59.13;100297.08;1760253;80;21234;-68
2021/03/11 06:55:48;;;;;;;75.57;32.73;;;;;;;-0.01;58.92;100305.27;1759983;80;21422;-68
2021/03/11 06:58:20;;;;;;;75.10;31.50;;;;;;;0.07;58.87;100297.53;1762475;80;21047;-68
2021/03/11 07:00:46;;;;;;;74.92;32.63;;;;;;;0.14;58.85;100288.45;1767493;80;21935;-68
2021/03/11 07:03:12;;;;;;;75.37;32.53;;;;;;;0.16;58.76;100284.03;1754287;80;21258;-69
2021/03/11 07:05:43;;;;;;;70.23;31.27;;;;;;;0.18;59.04;100282.17;1767585;80;20935;-69
2021/03/11 07:08:16;;;;;;;77.22;31.65;;;;;;;0.27;58.93;100276.46;1755953;80;22396;-68
2021/03/11 07:10:44;;;;;;;73.70;33.18;;;;;;;0.27;59.01;100280.36;1760334;80;21184;-68
2021/03/11 07:13:10;;;;;;;72.37;33.40;;;;;;;0.24;59.47;100277.94;1763199;80;21822;-66
2021/03/11 07:15:37;;;;;;;80.83;33.75;;;;;;;0.30;59.36;100274.99;1763338;80;21211;-67
2021/03/11 07:18:07;;;;;;;70.90;32.93;;;;;;;0.34;59.19;100276.50;1765578;80;21164;-68
2021/03/11 07:20:34;;;;;;;68.28;31.62;;;;;;;0.50;60.00;100269.12;1752965;80;21410;-68
2021/03/11 07:23:12;;;;;;;71.53;32.27;;;;;;;0.73;59.98;100274.73;1770434;79;21229;-67
2021/03/11 07:25:45;;;;;;;66.02;30.60;;;;;;;0.89;59.25;100269.02;1782711;79;21874;-66
2021/03/11 07:28:27;;;;;;;64.62;30.43;;;;;;;1.02;58.45;100273.84;1772107;79;21544;-68
2021/03/11 07:30:57;;;;;;;65.37;28.70;;;;;;;1.01;57.82;100266.98;1771499;79;21647;-67
2021/03/11 07:33:27;;;;;;;59.00;27.85;;;;;;;1.14;57.65;100264.95;1779620;79;21212;-68
2021/03/11 07:35:58;;;;;;;55.98;27.10;;;;;;;1.15;57.42;100241.89;1776765;79;21189;-68
2021/03/11 07:38:26;;;;;;;55.17;25.48;;;;;;;1.05;57.25;100237.72;1779847;79;21229;-67
2021/03/11 07:40:55;;;;;;;54.83;26.50;;;;;;;1.05;57.25;100237.72;1783025;79;21193;-67
2021/03/11 07:43:22;;;;;;;50.45;25.92;;;;;;;1.31;56.93;100250.44;1778843;79;21225;-68
2021/03/11 07:45:47;;;;;;;49.03;23.85;;;;;;;1.31;56.59;100245.23;1782229;79;21650;-69
2021/03/11 07:48:14;;;;;;;46.70;22.17;;;;;;;1.37;56.57;100237.05;1779850;79;22737;-69
2021/03/11 07:50:40;;;;;;;44.45;22.45;;;;;;;1.46;56.22;100227.00;1779882;80;21855;-69
2021/03/11 07:53:06;;;;;;;44.23;21.87;;;;;;;1.57;56.24;100232.35;1779973;79;21541;-68
2021/03/11 07:55:32;;;;;;;39.40;20.05;;;;;;;1.65;55.92;100219.72;1781766;79;21208;-68
2021/03/11 07:58:04;;;;;;;37.43;19.80;;;;;;;1.64;55.22;100210.70;1780084;79;22983;-69
2021/03/11 08:00:29;;;;;;;39.70;19.77;;;;;;;1.71;54.83;100205.01;1786473;79;21342;-71
2021/03/11 08:03:02;;;;;;;38.13;19.40;;;;;;;1.79;54.31;100201.91;1778575;80;21095;-68
2021/03/11 08:05:29;;;;;;;35.55;18.15;;;;;;;1.94;53.47;100188.35;1775601;79;21245;-69
2021/03/11 08:08:16;;;;;;;39.27;17.48;;;;;;;1.94;53.42;100185.75;1769641;79;21220;-69
2021/03/11 08:10:46;;;;;;;36.08;16.60;;;;;;;2.07;53.14;100182.72;1783343;79;21173;-67
2021/03/11 08:13:36;;;;;;;31.90;17.60;;;;;;;2.12;52.49;100184.55;1787607;78;21098;-66
2021/03/11 08:16:19;;;;;;;35.55;17.77;;;;;;;2.27;52.38;100185.77;1786680;79;21237;-70
2021/03/11 08:18:45;;;;;;;35.23;17.07;;;;;;;2.36;51.98;100191.67;1730290;79;21192;-68
2021/03/11 08:21:29;;;;;;;33.00;17.95;;;;;;;2.39;51.58;100184.13;1784682;79;21237;-67
2021/03/11 08:23:56;;;;;;;31.87;16.75;;;;;;;2.36;51.48;100185.63;1782529;79;21634;-68
2021/03/11 08:26:41;;;;;;;35.88;17.48;;;;;;;2.39;51.37;100183.64;1784123;79;21181;-66
2021/03/11 08:29:21;;;;;;;30.30;17.42;;;;;;;2.25;51.04;100176.78;1781392;79;21570;-67
2021/03/11 08:31:47;;;;;;;31.85;17.98;;;;;;;2.32;51.05;100182.41;1786194;78;21216;-68
2021/03/11 08:34:36;;;;;;;29.97;17.20;;;;;;;2.34;50.74;100190.95;1775571;79;21005;-68
2021/03/11 08:37:22;;;;;;;34.35;17.98;;;;;;;2.43;50.80;100179.91;1796876;77;21209;-68
2021/03/11 08:39:49;;;;;;;33.28;18.45;;;;;;;2.49;50.25;100164.33;1798122;78;21614;-69
2021/03/11 08:42:52;;;;;;;37.05;18.62;;;;;;;2.48;50.10;100162.17;1805341;78;21217;-68
2021/03/11 08:45:38;;;;;;;30.60;18.05;;;;;;;2.50;50.16;100155.11;1794071;77;21601;-68
2021/03/11 08:48:14;;;;;;;33.28;17.82;;;;;;;2.42;50.08;100155.25;1753465;77;21188;-68
2021/03/11 08:50:41;;;;;;;31.87;16.97;;;;;;;2.39;49.53;100165.41;1801278;77;21239;-66
2021/03/11 08:53:07;;;;;;;32.75;17.05;;;;;;;2.44;49.33;100162.48;1800593;77;21221;-67
2021/03/11 08:55:39;;;;;;;30.70;17.93;;;;;;;2.37;48.52;100154.25;1790864;77;21715;-68
2021/03/11 08:58:25;;;;;;;32.45;17.37;;;;;;;2.48;48.62;100151.75;1795238;77;21204;-67
2021/03/11 09:01:03;;;;;;;31.27;15.60;;;;;;;2.39;48.96;100139.34;1768972;78;21283;-67
2021/03/11 09:03:44;;;;;;;33.08;17.80;;;;;;;2.51;48.64;100130.69;1793162;77;21411;-66
2021/03/11 09:06:11;;;;;;;28.40;16.62;;;;;;;2.36;48.17;100126.52;1770911;80;21596;-67
2021/03/11 09:08:51;;;;;;;31.73;16.97;;;;;;;2.50;48.25;100122.97;1801481;78;21188;-67
2021/03/11 09:11:22;;;;;;;34.70;17.12;;;;;;;2.50;48.17;100119.06;1797374;77;21209;-67
2021/03/11 09:13:50;;;;;;;32.65;16.30;;;;;;;2.56;48.08;100119.13;1800528;77;21707;-66
2021/03/11 09:16:26;;;;;;;27.22;15.72;;;;;;;2.60;47.52;100107.56;1798692;77;21160;-67
2021/03/11 09:18:56;;;;;;;24.43;14.78;;;;;;;2.78;47.79;100098.45;1775823;78;21196;-67
2021/03/11 09:21:22;;;;;;;31.35;16.85;;;;;;;3.03;47.38;100083.66;1779919;79;21774;-68
2021/03/11 09:23:47;;;;;;;26.23;15.93;;;;;;;3.19;47.14;100095.98;1781794;79;21019;-67
2021/03/11 09:26:30;;;;;;;24.63;15.53;;;;;;;3.21;46.60;100086.26;1772794;79;21386;-68
2021/03/11 09:28:59;;;;;;;25.75;14.75;;;;;;;3.41;46.47;100085.30;1761023;79;21590;-67
2021/03/11 09:31:26;;;;;;;25.32;15.13;;;;;;;3.42;46.25;100073.92;1776621;79;21208;-68
2021/03/11 09:33:54;;;;;;;23.85;14.47;;;;;;;3.23;44.85;100063.52;1767111;79;21679;-68
2021/03/11 09:36:20;;;;;;;24.80;14.05;;;;;;;3.28;45.04;100060.58;1778611;79;21202;-68
2021/03/11 09:38:46;;;;;;;22.70;14.20;;;;;;;3.27;44.70;100043.72;1775860;79;20950;-67
2021/03/11 09:41:11;;;;;;;25.85;14.68;;;;;;;3.27;45.42;100046.33;1771857;79;21738;-67
2021/03/11 09:43:38;;;;;;;23.40;14.47;;;;;;;3.36;44.98;100050.88;1773023;79;25224;-67
2021/03/11 09:46:11;;;;;;;26.70;14.70;;;;;;;3.31;45.10;100053.83;1774804;79;22065;-67
2021/03/11 09:48:50;;;;;;;27.70;14.80;;;;;;;3.47;45.52;100050.92;1771575;79;21248;-66
2021/03/11 09:51:24;;;;;;;23.57;15.30;;;;;;;3.46;45.19;100046.63;1773518;79;21175;-68
2021/03/11 09:54:01;;;;;;;28.80;15.35;;;;;;;3.49;44.85;100043.80;1777047;79;21665;-68
2021/03/11 09:56:42;;;;;;;22.27;13.95;;;;;;;3.54;44.81;100030.41;1773947;79;21627;-67
2021/03/11 09:59:12;;;;;;;27.93;15.65;;;;;;;3.50;44.35;100028.50;1775126;79;21313;-68
2021/03/11 10:01:42;;;;;;;25.10;15.28;;;;;;;3.54;44.82;100019.50;1772442;79;21229;-68
2021/03/11 10:04:16;;;;;;;28.10;15.68;;;;;;;3.63;45.00;100010.62;1772628;79;21218;-68
2021/03/11 10:06:57;;;;;;;27.20;16.37;;;;;;;3.67;45.10;99989.87;1773303;79;21229;-69
2021/03/11 10:09:24;;;;;;;27.17;15.58;;;;;;;3.57;44.91;99977.95;1767168;79;21232;-66
2021/03/11 10:11:54;;;;;;;29.63;16.60;;;;;;;3.52;44.70;99980.91;1770965;79;21691;-67
2021/03/11 10:14:28;;;;;;;27.50;16.00;;;;;;;3.58;44.73;99975.23;1770842;79;21232;-67
2021/03/11 10:16:59;;;;;;;29.80;15.65;;;;;;;3.47;45.02;99967.38;1776518;79;21192;-69
2021/03/11 10:19:35;;;;;;;26.90;16.35;;;;;;;3.59;44.97;99969.07;1777020;78;21190;-67
2021/03/11 10:22:17;;;;;;;26.15;15.72;;;;;;;3.64;45.00;99953.54;1774254;79;21146;-68
2021/03/11 10:24:50;;;;;;;26.75;16.37;;;;;;;3.64;45.01;99948.32;1780921;79;22408;-69
2021/03/11 10:27:26;;;;;;;26.73;17.10;;;;;;;3.64;44.96;99942.61;1785314;79;21200;-69
2021/03/11 10:30:23;;;;;;;29.18;17.80;;;;;;;3.57;44.73;99935.73;1792193;79;21164;-70
2021/03/11 10:32:54;;;;;;;23.32;15.08;;;;;;;3.65;44.83;99936.91;1787679;79;21693;-69
2021/03/11 10:35:31;;;;;;;25.25;15.43;;;;;;;3.69;44.79;99930.52;1790751;79;21212;-69
2021/03/11 10:38:18;;;;;;;34.15;17.37;;;;;;;3.68;44.72;99932.75;1787070;79;22451;-67
2021/03/11 10:40:44;;;;;;;29.75;15.53;;;;;;;3.81;44.43;99928.72;1780942;78;21189;-68
2021/03/11 10:43:24;;;;;;;25.90;15.37;;;;;;;3.86;44.46;99918.28;1783808;79;21212;-68
2021/03/11 10:45:50;;;;;;;25.12;15.75;;;;;;;3.94;43.99;99915.90;1777059;78;21232;-67
2021/03/11 10:48:15;;;;;;;25.70;16.10;;;;;;;4.12;43.99;99905.80;1796846;78;25271;-69
2021/03/11 10:50:47;;;;;;;28.87;15.87;;;;;;;4.14;43.72;99897.84;1798526;78;22610;-69
2021/03/11 10:53:13;;;;;;;26.35;14.98;;;;;;;4.16;43.73;99898.55;1777396;79;21216;-70
2021/03/11 10:55:42;;;;;;;28.40;16.37;;;;;;;4.21;43.61;99884.66;1777888;79;21221;-68
2021/03/11 10:58:26;;;;;;;28.90;16.05;;;;;;;4.18;43.69;99876.20;1779100;79;21211;-69
2021/03/11 11:01:21;;;;;;;29.07;15.43;;;;;;;4.28;43.81;99881.89;1777951;79;21166;-69
2021/03/11 11:03:46;;;;;;;30.30;15.20;;;;;;;4.35;43.79;99877.02;1769426;79;21248;-71
2021/03/11 11:06:12;;;;;;;25.20;15.37;;;;;;;4.48;43.54;99869.02;1785207;78;24622;-69
2021/03/11 11:08:44;;;;;;;26.30;15.50;;;;;;;4.49;43.66;99864.16;1787947;77;21036;-68
2021/03/11 11:11:10;;;;;;;23.80;15.55;;;;;;;4.41;43.84;99865.22;1789968;77;21226;-69
2021/03/11 11:13:36;;;;;;;25.65;16.17;;;;;;;4.31;44.38;99847.66;1791185;77;21152;-68
2021/03/11 11:16:02;;;;;;;25.40;15.70;;;;;;;4.18;44.71;99847.00;1773250;79;22272;-68
2021/03/11 11:18:28;;;;;;;24.60;15.60;;;;;;;4.20;44.82;99839.86;1789041;78;21192;-68
2021/03/11 11:20:54;;;;;;;24.63;15.60;;;;;;;4.23;44.79;99833.57;1787892;78;21662;-69
2021/03/11 11:23:20;;;;;;;24.10;15.10;;;;;;;4.17;44.93;99830.96;1788025;78;29067;-67
2021/03/11 11:25:46;;;;;;;24.00;15.03;;;;;;;4.23;44.73;99821.32;1778248;79;25647;-67